CheckWX is a tool to help pilots better visualize weather data.  It is not intended as a substitute for an official pre-flight weather briefing.

13:30:04 UTC

KMUI TAF
Muir AAF (Fort Indiantown Gap) Airport
Fort Indiantown Gap(Annville), Pennsylvania, USA
TAF KMUI 181100Z 1811/1917 VRB06KT 8000 BR BKN050 QNH3002INS BECMG 1814/1815 20006KT 9999 NSW SCT050 QNH3002INS BECMG 1902/1903 VRB06KT 6000 BR FEW030 QNH2997INS BECMG 1915/1916 19006KT 9999 NSW SKC QNH2998INS TX32/1819Z TN20/1812Z

Aug-18@
11:00 UTC

Aug-18 @ 11:00 UTC

Aug-18@
14:00 UTC

Aug-18 @ 14:00 UTC

TAF KMUI 181100Z 1811/1917 VRB06KT 8000 BR BKN050 QNH3002INS
Wind
  • Variable at 6 KTS
Conditions
Mist
Cloud Levels
  • Broken at 5,000' AGL

Aug-18@
14:00 UTC

Aug-18 @ 14:00 UTC

Aug-19@
02:00 UTC

Aug-19 @ 02:00 UTC

BECMG 1814/1815 20006KT 9999 NSW SCT050 QNH3002INS

Becoming

Becoming Conditions expected by Sun, Aug 18, 2019 @ 15:00 UTC

Wind
  • 200° at 6 KTS
Conditions
No significant weather
Cloud Levels
  • Scattered at 5,000' AGL

Aug-19@
02:00 UTC

Aug-19 @ 02:00 UTC

Aug-19@
15:00 UTC

Aug-19 @ 15:00 UTC

BECMG 1902/1903 VRB06KT 6000 BR FEW030 QNH2997INS

Becoming

Becoming Conditions expected by Mon, Aug 19, 2019 @ 03:00 UTC

Wind
  • Variable at 6 KTS
Conditions
Mist
Cloud Levels
  • Few at 3,000' AGL

Aug-19@
15:00 UTC

Aug-19 @ 15:00 UTC

Aug-19@
17:00 UTC

Aug-19 @ 17:00 UTC

BECMG 1915/1916 19006KT 9999 NSW SKC QNH2998INS TX32/1819Z TN20/1812Z

Becoming

Becoming Conditions expected by Mon, Aug 19, 2019 @ 16:00 UTC

Wind
  • 190° at 6 KTS
Conditions
No significant weather
Cloud Levels
  • Clear skies